Time;durP1;ratioP1;P1;durP2;ratioP2;P2;SDS_P1;SDS_P2;PMS_P1;PMS_P2;Temp;Humidity;BMP_temperature;BMP_pressure;BME280_temperature;BME280_humidity;BME280_pressure;Samples;Min_cycle;Max_cycle;Signal;HPM_P1;HPM_P2
2023/04/17 00:00:00;;;;;;;0.57;0.57;;;;;;;5.93;46.39;101773.91;5107196;28;20020;-60
2023/04/17 00:02:28;;;;;;;0.50;0.50;;;;;;;5.92;46.44;101779.03;5107060;28;20078;-61
2023/04/17 00:04:54;;;;;;;0.52;0.52;;;;;;;5.85;46.44;101772.78;5105500;28;20026;-59
2023/04/17 00:07:21;;;;;;;0.40;0.40;;;;;;;5.87;46.54;101786.59;5107078;28;20047;-60
2023/04/17 00:09:47;;;;;;;0.50;0.50;;;;;;;5.73;46.51;101765.53;5106783;28;20020;-60
2023/04/17 00:12:13;;;;;;;0.50;0.50;;;;;;;5.75;46.47;101776.75;5088626;28;20073;-58
2023/04/17 00:14:38;;;;;;;0.50;0.50;;;;;;;5.68;46.54;101778.25;5105616;28;20024;-58
2023/04/17 00:17:04;;;;;;;0.50;0.50;;;;;;;5.67;46.98;101783.38;5106885;28;20417;-61
2023/04/17 00:19:29;;;;;;;0.50;0.50;;;;;;;5.62;47.20;101793.50;5106883;28;20500;-59
2023/04/17 00:21:54;;;;;;;0.50;0.50;;;;;;;5.59;47.32;101783.09;5106455;28;20492;-60
2023/04/17 00:24:20;;;;;;;0.50;0.50;;;;;;;5.56;47.54;101794.16;5088296;28;20454;-59
2023/04/17 00:26:45;;;;;;;0.50;0.50;;;;;;;5.54;47.54;101789.78;5106377;28;20023;-59
2023/04/17 00:29:10;;;;;;;0.50;0.50;;;;;;;5.49;47.47;101787.06;5106440;28;20032;-60
2023/04/17 00:31:36;;;;;;;0.50;0.50;;;;;;;5.52;47.53;101791.44;5106309;28;20047;-60
2023/04/17 00:34:01;;;;;;;0.50;0.50;;;;;;;5.52;47.52;101794.00;5106064;28;20020;-60
2023/04/17 00:36:30;;;;;;;0.98;0.98;;;;;;;5.49;47.42;101788.75;5106283;28;20019;-61
2023/04/17 00:38:56;;;;;;;0.47;0.47;;;;;;;5.46;47.21;101790.38;5104832;28;20484;-59
2023/04/17 00:41:21;;;;;;;0.90;0.90;;;;;;;5.49;47.48;101794.78;5106047;28;20041;-59
2023/04/17 00:43:46;;;;;;;0.50;0.50;;;;;;;5.46;47.41;101797.25;5106450;28;20371;-60
2023/04/17 00:46:12;;;;;;;0.50;0.50;;;;;;;5.44;47.39;101799.78;5106203;28;20046;-60
2023/04/17 00:48:39;;;;;;;0.47;0.47;;;;;;;5.45;47.32;101803.19;5106455;28;20371;-60
2023/04/17 00:51:05;;;;;;;0.50;0.50;;;;;;;5.42;47.38;101796.25;5106187;28;20031;-58
2023/04/17 00:53:31;;;;;;;0.50;0.50;;;;;;;5.39;47.53;101798.72;5106075;28;20028;-59
2023/04/17 00:55:59;;;;;;;0.50;0.50;;;;;;;5.35;47.62;101799.44;5106226;28;20024;-58
2023/04/17 00:58:25;;;;;;;0.50;0.50;;;;;;;5.32;47.61;101805.34;5105952;28;20035;-59
2023/04/17 01:00:51;;;;;;;0.50;0.50;;;;;;;5.30;47.73;101806.13;5106057;28;20079;-60
2023/04/17 01:03:16;;;;;;;1.63;1.58;;;;;;;5.30;47.54;101811.28;5088050;28;20468;-60
2023/04/17 01:05:45;;;;;;;0.50;0.50;;;;;;;5.29;47.83;101801.78;5105911;28;20024;-59
2023/04/17 01:08:10;;;;;;;0.40;0.40;;;;;;;5.27;47.80;101806.00;5106047;28;20048;-59
2023/04/17 01:10:35;;;;;;;0.40;0.40;;;;;;;5.27;47.81;101806.88;5105961;28;20023;-61
2023/04/17 01:13:05;;;;;;;0.50;0.50;;;;;;;5.26;47.96;101805.13;5121402;28;20076;-59
2023/04/17 01:15:31;;;;;;;0.90;0.90;;;;;;;5.25;47.90;101805.06;5105275;28;20024;-60
2023/04/17 01:17:57;;;;;;;0.98;0.98;;;;;;;5.25;48.14;101818.84;5104924;28;20168;-60
2023/04/17 01:20:24;;;;;;;0.50;0.50;;;;;;;5.25;48.21;101810.22;5105298;28;20028;-60
2023/04/17 01:22:50;;;;;;;0.50;0.50;;;;;;;5.25;48.29;101802.50;5104668;28;20035;-59
2023/04/17 01:25:17;;;;;;;0.50;0.50;;;;;;;5.23;48.21;101810.16;5104792;28;20530;-59
2023/04/17 01:27:42;;;;;;;0.50;0.50;;;;;;;5.24;48.18;101813.63;5104773;28;20028;-59
2023/04/17 01:30:08;;;;;;;0.50;0.50;;;;;;;5.23;48.10;101806.72;5105714;28;20070;-59
2023/04/17 01:32:34;;;;;;;0.50;0.50;;;;;;;5.24;48.24;101809.34;5105237;28;20080;-60
2023/04/17 01:34:59;;;;;;;0.50;0.50;;;;;;;5.21;48.34;101802.38;5105411;28;20117;-60
2023/04/17 01:37:25;;;;;;;0.50;0.50;;;;;;;5.20;48.38;101810.06;5105501;28;20028;-60
2023/04/17 01:39:50;;;;;;;0.50;0.50;;;;;;;5.23;48.50;101819.59;5087108;28;20028;-60
2023/04/17 01:42:15;;;;;;;3.05;2.67;;;;;;;5.19;48.40;101810.88;5105350;28;20030;-59
2023/04/17 01:44:41;;;;;;;0.50;0.50;;;;;;;5.20;48.55;101820.34;5086774;28;20012;-60
2023/04/17 01:47:06;;;;;;;0.50;0.50;;;;;;;5.18;48.56;101815.16;5105159;28;20024;-60
2023/04/17 01:49:32;;;;;;;0.50;0.50;;;;;;;5.17;48.56;101821.13;5105122;28;20035;-59
2023/04/17 01:51:57;;;;;;;0.50;0.50;;;;;;;5.18;48.73;101824.56;5104930;28;20056;-60
2023/04/17 01:54:23;;;;;;;0.50;0.50;;;;;;;5.17;48.82;101818.56;5104879;28;20020;-59
2023/04/17 01:56:49;;;;;;;0.57;0.57;;;;;;;5.19;49.20;101816.03;5105034;28;20034;-60
2023/04/17 01:59:15;;;;;;;0.50;0.50;;;;;;;5.20;49.42;101807.47;5104970;28;20024;-59
2023/04/17 02:01:40;;;;;;;0.43;0.43;;;;;;;5.23;49.46;101822.16;5105038;28;20056;-59
2023/04/17 02:04:06;;;;;;;0.50;0.50;;;;;;;5.22;49.42;101818.72;5104707;28;20356;-59
2023/04/17 02:06:31;;;;;;;0.50;0.50;;;;;;;5.20;49.68;101816.09;5104723;28;20035;-59
2023/04/17 02:08:58;;;;;;;0.50;0.50;;;;;;;5.21;49.53;101817.84;5086529;28;20462;-61
2023/04/17 02:11:23;;;;;;;0.40;0.40;;;;;;;5.20;49.59;101817.78;5104842;28;20030;-60
2023/04/17 02:13:49;;;;;;;0.40;0.40;;;;;;;5.21;49.79;101816.94;5104695;28;20020;-61
2023/04/17 02:16:15;;;;;;;0.50;0.50;;;;;;;5.19;49.75;101824.63;5104611;28;20059;-59
2023/04/17 02:18:40;;;;;;;0.50;0.50;;;;;;;5.16;49.80;101816.78;5104475;28;20031;-60
2023/04/17 02:21:06;;;;;;;0.45;0.45;;;;;;;5.19;49.90;101823.75;5104416;28;20034;-60
2023/04/17 02:23:31;;;;;;;0.50;0.50;;;;;;;5.15;49.76;101822.75;5104443;28;20094;-59
2023/04/17 02:25:57;;;;;;;0.50;0.50;;;;;;;5.15;49.73;101825.34;5104463;28;20048;-60
2023/04/17 02:28:22;;;;;;;0.52;0.52;;;;;;;5.15;49.71;101822.75;5104642;28;20024;-60
2023/04/17 02:30:48;;;;;;;0.50;0.50;;;;;;;5.15;49.87;101825.34;5104520;28;20051;-61
2023/04/17 02:33:13;;;;;;;0.47;0.47;;;;;;;5.14;49.97;101826.16;5104220;28;20131;-59
2023/04/17 02:35:39;;;;;;;0.50;0.50;;;;;;;5.13;49.73;101829.53;5104042;28;20059;-59
2023/04/17 02:38:04;;;;;;;0.85;0.85;;;;;;;5.11;49.63;101831.22;5103228;28;20304;-61
2023/04/17 02:40:30;;;;;;;0.50;0.50;;;;;;;5.10;49.55;101836.31;5103014;28;20052;-59
2023/04/17 02:42:55;;;;;;;0.50;0.50;;;;;;;5.11;49.60;101830.31;5104337;28;20020;-59
2023/04/17 02:45:21;;;;;;;0.43;0.43;;;;;;;5.07;49.53;101832.78;5104258;28;20020;-60
2023/04/17 02:47:47;;;;;;;0.50;0.50;;;;;;;5.06;49.35;101832.72;5104346;28;20055;-60
2023/04/17 02:50:12;;;;;;;0.50;0.50;;;;;;;5.00;49.21;101827.34;5103925;28;20024;-60
2023/04/17 02:52:38;;;;;;;0.40;0.40;;;;;;;5.02;49.35;101838.56;5104091;28;20360;-58
2023/04/17 02:55:05;;;;;;;0.50;0.50;;;;;;;4.96;49.36;101834.97;5103936;28;20020;-59
2023/04/17 02:57:31;;;;;;;0.50;0.50;;;;;;;4.96;49.33;101841.78;5104146;28;20059;-59
2023/04/17 02:59:57;;;;;;;0.50;0.50;;;;;;;4.96;49.31;101846.94;5103897;28;20077;-61
2023/04/17 03:02:23;;;;;;;0.60;0.60;;;;;;;4.92;49.40;101838.22;5104163;28;20329;-58
2023/04/17 03:04:50;;;;;;;0.50;0.50;;;;;;;4.91;49.35;101844.19;5104197;28;20020;-59
2023/04/17 03:07:20;;;;;;;0.50;0.50;;;;;;;4.90;49.22;101836.41;5104096;28;20045;-59
2023/04/17 03:09:46;;;;;;;0.50;0.50;;;;;;;4.89;49.30;101837.25;5104177;28;20031;-59
2023/04/17 03:12:15;;;;;;;0.40;0.40;;;;;;;4.84;49.25;101837.91;5103861;28;20027;-59
2023/04/17 03:14:42;;;;;;;0.57;0.57;;;;;;;4.85;49.32;101849.09;5103915;28;20101;-59
2023/04/17 03:17:08;;;;;;;0.90;0.90;;;;;;;4.85;49.48;101841.38;5104082;28;20050;-60
2023/04/17 03:19:34;;;;;;;0.50;0.50;;;;;;;4.89;49.38;101850.97;5104128;28;20084;-60
2023/04/17 03:22:00;;;;;;;0.50;0.50;;;;;;;4.90;49.68;101857.00;5103852;28;20475;-59
2023/04/17 03:24:26;;;;;;;0.40;0.40;;;;;;;4.93;49.57;101849.41;5104061;28;20085;-60
2023/04/17 03:26:51;;;;;;;0.50;0.50;;;;;;;4.95;49.65;101852.91;5103983;28;20021;-60
2023/04/17 03:29:17;;;;;;;0.47;0.47;;;;;;;4.91;49.70;101849.34;5104007;28;20016;-60
2023/04/17 03:31:42;;;;;;;0.40;0.40;;;;;;;4.89;49.61;101857.84;5103749;28;20126;-59
2023/04/17 03:34:07;;;;;;;0.43;0.43;;;;;;;4.88;49.50;101858.63;5085514;28;20028;-60
2023/04/17 03:36:33;;;;;;;0.50;0.50;;;;;;;4.84;49.47;101857.63;5103635;28;20023;-60
2023/04/17 03:38:58;;;;;;;0.50;0.50;;;;;;;4.81;49.51;101857.50;5103787;28;20020;-59
2023/04/17 03:41:23;;;;;;;0.50;0.50;;;;;;;4.77;49.64;101853.97;5103776;28;20115;-59
2023/04/17 03:43:49;;;;;;;0.50;0.50;;;;;;;4.76;49.76;101862.47;5103760;28;20085;-59
2023/04/17 03:46:14;;;;;;;0.50;0.50;;;;;;;4.78;49.78;101867.69;5103699;28;20472;-59
2023/04/17 03:48:40;;;;;;;0.60;0.60;;;;;;;4.78;49.79;101865.09;5106284;28;20020;-59
2023/04/17 03:51:05;;;;;;;0.50;0.50;;;;;;;4.74;49.71;101865.81;5107132;28;20055;-59
2023/04/17 03:53:31;;;;;;;0.50;0.50;;;;;;;4.71;49.85;101871.72;5107164;28;20024;-61
2023/04/17 03:55:56;;;;;;;0.50;0.50;;;;;;;4.67;49.94;101886.16;5089192;28;20019;-59
2023/04/17 03:58:22;;;;;;;0.40;0.40;;;;;;;4.59;49.90;101878.13;5107483;28;20020;-59
2023/04/17 04:00:48;;;;;;;1.83;1.73;;;;;;;4.54;50.04;101873.59;5107326;28;20031;-61
2023/04/17 04:03:14;;;;;;;0.50;0.50;;;;;;;4.49;50.20;101890.56;5107211;28;20099;-60
2023/04/17 04:05:40;;;;;;;0.50;0.50;;;;;;;4.42;50.55;101894.56;5107185;28;20128;-59
2023/04/17 04:08:05;;;;;;;0.50;0.50;;;;;;;4.36;50.59;101895.19;5107284;28;20349;-59
2023/04/17 04:10:33;;;;;;;0.50;0.50;;;;;;;4.28;50.76;101896.56;5107267;28;20054;-59
2023/04/17 04:12:59;;;;;;;0.60;0.60;;;;;;;4.20;51.20;101904.81;5088752;28;20036;-60
2023/04/17 04:15:24;;;;;;;0.50;0.50;;;;;;;4.13;51.35;101907.97;5106970;28;20020;-62
2023/04/17 04:17:50;;;;;;;0.50;0.50;;;;;;;4.07;51.67;101912.84;5107157;28;20024;-59
2023/04/17 04:20:15;;;;;;;1.05;1.05;;;;;;;4.06;51.60;101919.66;5106890;28;20031;-60
2023/04/17 04:22:43;;;;;;;0.50;0.50;;;;;;;4.10;52.05;101920.69;5106773;28;20044;-59
2023/04/17 04:25:09;;;;;;;0.50;0.50;;;;;;;4.21;52.13;101928.84;5106984;28;20103;-59
2023/04/17 04:27:34;;;;;;;0.50;0.50;;;;;;;4.45;52.36;101939.31;5106697;28;20059;-61
2023/04/17 04:30:00;;;;;;;0.50;0.50;;;;;;;4.77;52.45;101933.72;5106607;28;20032;-60
2023/04/17 04:32:26;;;;;;;0.50;0.50;;;;;;;5.11;52.70;101938.44;5106478;28;20048;-61
2023/04/17 04:34:55;;;;;;;0.50;0.50;;;;;;;5.54;52.63;101946.94;5106270;28;20149;-60
2023/04/17 04:37:28;;;;;;;0.50;0.50;;;;;;;5.90;52.49;101943.06;5088172;28;20115;-60
2023/04/17 04:40:00;;;;;;;0.63;0.63;;;;;;;6.34;52.14;101936.88;5106505;28;20020;-60
2023/04/17 04:42:27;;;;;;;0.50;0.50;;;;;;;6.72;51.73;101936.38;5106596;28;20072;-61
2023/04/17 04:44:52;;;;;;;0.40;0.40;;;;;;;7.03;51.56;101938.22;5106338;28;20024;-61
2023/04/17 04:47:18;;;;;;;0.40;0.40;;;;;;;7.39;50.73;101941.88;5106531;28;20016;-63
2023/04/17 04:49:44;;;;;;;1.20;1.20;;;;;;;7.61;50.51;101941.63;5086711;28;20187;-62
2023/04/17 04:52:09;;;;;;;0.45;0.45;;;;;;;7.96;50.74;101944.31;5106138;28;20032;-60
2023/04/17 04:54:35;;;;;;;0.47;0.47;;;;;;;8.41;50.31;101948.09;5106034;28;20024;-59
2023/04/17 04:57:01;;;;;;;0.73;0.73;;;;;;;8.76;50.54;101948.94;5106081;28;20028;-61
2023/04/17 04:59:26;;;;;;;0.50;0.50;;;;;;;9.22;50.21;101956.06;5105346;28;20024;-62
2023/04/17 05:01:52;;;;;;;0.40;0.40;;;;;;;9.56;50.06;101961.97;5105719;28;20020;-62
2023/04/17 05:04:17;;;;;;;0.52;0.52;;;;;;;10.07;50.33;101964.69;5105834;28;20018;-62
2023/04/17 05:06:43;;;;;;;0.40;0.40;;;;;;;10.64;49.64;101961.34;5105748;28;20059;-62
2023/04/17 05:09:08;;;;;;;1.17;1.15;;;;;;;11.13;48.37;101961.22;5087364;28;20028;-61
2023/04/17 05:11:34;;;;;;;0.40;0.40;;;;;;;11.55;48.78;101949.66;5105753;28;20058;-61
2023/04/17 05:13:59;;;;;;;0.30;0.30;;;;;;;11.69;47.08;101958.50;5104479;28;20024;-61
2023/04/17 05:16:25;;;;;;;0.40;0.40;;;;;;;12.18;47.27;101967.75;5104716;28;20078;-61
2023/04/17 05:18:50;;;;;;;0.30;0.30;;;;;;;12.38;46.13;101975.72;5104385;28;20233;-60
2023/04/17 05:21:16;;;;;;;0.40;0.40;;;;;;;12.37;46.80;101979.22;5104381;28;20058;-60
2023/04/17 05:23:41;;;;;;;0.40;0.40;;;;;;;12.51;45.77;101975.84;5105405;28;20035;-60
2023/04/17 05:26:07;;;;;;;0.30;0.30;;;;;;;12.29;44.87;101966.94;5105287;28;20366;-61
2023/04/17 05:28:32;;;;;;;0.40;0.40;;;;;;;12.09;44.52;101988.47;5105442;28;20030;-61
2023/04/17 05:30:58;;;;;;;0.30;0.30;;;;;;;12.14;44.78;101987.66;5105537;28;20053;-60
2023/04/17 05:33:23;;;;;;;0.40;0.40;;;;;;;12.42;44.54;101986.19;5105363;28;20067;-60
2023/04/17 05:35:49;;;;;;;1.02;0.80;;;;;;;12.45;44.25;101994.91;5105153;28;20062;-60
2023/04/17 05:38:15;;;;;;;0.30;0.30;;;;;;;12.69;43.37;101987.28;5105592;28;20035;-61
2023/04/17 05:40:40;;;;;;;0.63;0.63;;;;;;;12.78;43.23;101987.34;5105483;28;20032;-60
2023/04/17 05:43:10;;;;;;;0.40;0.40;;;;;;;12.86;42.99;101987.44;5105420;28;20016;-61
2023/04/17 05:45:35;;;;;;;0.40;0.40;;;;;;;12.64;42.19;101998.53;5105390;28;20046;-59
2023/04/17 05:48:01;;;;;;;0.40;0.40;;;;;;;12.75;41.94;101998.63;5105677;28;20036;-62
2023/04/17 05:50:27;;;;;;;0.40;0.40;;;;;;;12.76;41.67;102000.38;5105235;28;20031;-60
2023/04/17 05:52:53;;;;;;;0.40;0.40;;;;;;;12.54;41.72;102009.72;5105366;28;20484;-60
2023/04/17 05:55:21;;;;;;;0.40;0.40;;;;;;;12.50;41.21;102005.38;5104965;28;20012;-60
2023/04/17 05:57:47;;;;;;;0.40;0.40;;;;;;;12.69;41.56;102010.72;5105293;28;20020;-60
2023/04/17 06:00:14;;;;;;;6.70;1.58;;;;;;;12.93;40.39;102002.25;5087102;28;20031;-61
2023/04/17 06:02:41;;;;;;;0.40;0.40;;;;;;;12.97;40.80;102006.59;5105018;28;20069;-60
2023/04/17 06:05:07;;;;;;;0.30;0.30;;;;;;;13.21;40.50;102007.63;5105097;28;20020;-61
2023/04/17 06:07:33;;;;;;;0.38;0.38;;;;;;;13.51;40.98;102008.69;5104672;28;20023;-61
2023/04/17 06:09:59;;;;;;;0.30;0.30;;;;;;;13.54;41.06;102017.41;5104864;28;20448;-60
2023/04/17 06:12:24;;;;;;;0.40;0.40;;;;;;;13.87;39.95;102011.47;5104076;28;20035;-60
2023/04/17 06:14:50;;;;;;;0.82;0.82;;;;;;;13.87;39.89;102016.69;5086598;28;20015;-60
2023/04/17 06:17:15;;;;;;;0.32;0.32;;;;;;;14.08;40.77;102020.25;5104671;28;20054;-62
2023/04/17 06:19:41;;;;;;;0.30;0.30;;;;;;;14.31;39.65;102011.59;5104785;28;20510;-62
2023/04/17 06:22:06;;;;;;;0.30;0.30;;;;;;;14.13;39.94;102004.59;5104137;28;20077;-60
2023/04/17 06:24:32;;;;;;;0.30;0.30;;;;;;;14.42;39.23;102005.50;5104420;28;20395;-60
2023/04/17 06:26:57;;;;;;;0.40;0.40;;;;;;;14.58;38.92;102009.91;5104363;28;20071;-60
2023/04/17 06:29:23;;;;;;;0.40;0.40;;;;;;;14.83;38.54;102011.66;5085599;28;20134;-60
2023/04/17 06:31:48;;;;;;;0.30;0.30;;;;;;;14.98;38.72;102018.63;5103497;28;20043;-61
2023/04/17 06:34:14;;;;;;;0.30;0.30;;;;;;;14.97;39.00;102019.47;5104186;28;20060;-59
2023/04/17 06:36:40;;;;;;;0.30;0.30;;;;;;;15.08;38.83;102017.72;5104292;28;20524;-61
2023/04/17 06:39:05;;;;;;;0.30;0.30;;;;;;;15.82;39.60;102030.59;5104261;28;20027;-60
2023/04/17 06:41:31;;;;;;;0.30;0.30;;;;;;;16.46;38.64;102025.03;5104368;28;20147;-60
2023/04/17 06:43:56;;;;;;;0.30;0.30;;;;;;;16.45;36.61;102031.16;5104312;28;20134;-60
2023/04/17 06:46:22;;;;;;;0.30;0.30;;;;;;;16.05;37.43;102035.78;5104437;28;20024;-61
2023/04/17 06:48:50;;;;;;;0.30;0.30;;;;;;;16.23;37.45;102036.53;5086228;28;20027;-61
2023/04/17 06:51:19;;;;;;;1.27;1.20;;;;;;;16.25;37.81;102029.53;5104106;28;20042;-61
2023/04/17 06:53:45;;;;;;;0.82;0.82;;;;;;;16.88;37.30;102032.56;5104368;28;20020;-61
2023/04/17 06:56:11;;;;;;;0.30;0.30;;;;;;;17.13;35.57;102031.50;5104324;28;20036;-61
2023/04/17 06:58:42;;;;;;;1.83;1.75;;;;;;;17.21;35.76;102037.53;5086151;28;20115;-61
2023/04/17 07:01:09;;;;;;;0.40;0.40;;;;;;;17.36;36.42;102049.66;5104092;28;20028;-61
2023/04/17 07:03:34;;;;;;;0.50;0.50;;;;;;;17.89;35.66;102037.66;5104078;28;20031;-62
2023/04/17 07:05:59;;;;;;;0.82;0.82;;;;;;;17.80;33.85;102034.25;5104202;28;20032;-60
2023/04/17 07:08:25;;;;;;;0.38;0.38;;;;;;;17.98;34.98;102042.78;5104158;28;20530;-60
2023/04/17 07:10:50;;;;;;;0.30;0.30;;;;;;;18.36;34.81;102045.78;5086033;28;20054;-61
2023/04/17 07:13:16;;;;;;;0.20;0.20;;;;;;;18.49;34.25;102051.72;5085942;28;20028;-60
2023/04/17 07:15:41;;;;;;;0.68;0.68;;;;;;;18.72;34.21;102039.97;5103907;28;20047;-60
2023/04/17 07:18:06;;;;;;;0.20;0.20;;;;;;;18.57;34.39;102039.34;5103993;28;20024;-60
2023/04/17 07:20:32;;;;;;;0.35;0.35;;;;;;;18.86;33.70;102047.63;5103912;28;20020;-60
2023/04/17 07:22:57;;;;;;;0.30;0.30;;;;;;;18.78;32.98;102039.88;5105639;28;20024;-60
2023/04/17 07:25:23;;;;;;;0.28;0.28;;;;;;;18.71;33.93;102048.75;5108003;28;20024;-60
2023/04/17 07:27:49;;;;;;;0.20;0.20;;;;;;;18.41;33.04;102046.59;5107982;28;20034;-60
2023/04/17 07:30:14;;;;;;;0.30;0.30;;;;;;;18.15;33.33;102050.44;5107998;28;20024;-60
2023/04/17 07:32:40;;;;;;;0.30;0.30;;;;;;;17.91;33.80;102049.00;5107839;28;20333;-60
2023/04/17 07:35:05;;;;;;;0.30;0.30;;;;;;;17.97;33.38;102056.81;5089629;28;20024;-59
2023/04/17 07:37:33;;;;;;;0.30;0.30;;;;;;;18.05;33.19;102049.69;5107726;28;20028;-60
2023/04/17 07:39:58;;;;;;;0.30;0.30;;;;;;;18.46;32.98;102064.91;5089381;28;20063;-61
2023/04/17 07:42:24;;;;;;;0.68;0.68;;;;;;;18.51;32.25;102060.47;5107815;28;20469;-59
2023/04/17 07:44:49;;;;;;;1.65;1.17;;;;;;;18.54;31.83;102072.69;5107813;28;20020;-59
2023/04/17 07:47:14;;;;;;;0.95;0.70;;;;;;;18.64;32.28;102070.78;5107695;28;20151;-60
2023/04/17 07:49:40;;;;;;;0.20;0.20;;;;;;;19.01;31.09;102072.78;5107693;28;20089;-60
2023/04/17 07:52:05;;;;;;;0.30;0.30;;;;;;;19.16;31.24;102070.81;5107272;28;20078;-60
2023/04/17 07:54:31;;;;;;;1.65;1.30;;;;;;;19.19;31.18;102076.03;5107583;28;20027;-61
2023/04/17 07:56:56;;;;;;;0.20;0.20;;;;;;;19.32;30.81;102069.66;5107664;28;20020;-61
2023/04/17 07:59:22;;;;;;;0.30;0.30;;;;;;;19.15;29.95;102075.22;5107483;28;20132;-60
2023/04/17 08:01:48;;;;;;;0.20;0.20;;;;;;;18.81;28.20;102086.28;5107370;28;20039;-60
2023/04/17 08:04:14;;;;;;;0.50;0.50;;;;;;;17.88;27.54;102081.44;5107319;28;20032;-62
2023/04/17 08:06:40;;;;;;;0.30;0.30;;;;;;;16.95;28.66;102080.59;5107030;28;20533;-61
2023/04/17 08:09:06;;;;;;;0.93;0.93;;;;;;;16.48;29.29;102083.56;5107366;28;20027;-60
2023/04/17 08:11:31;;;;;;;0.30;0.30;;;;;;;16.45;28.70;102081.81;5107215;28;20055;-60
2023/04/17 08:13:56;;;;;;;0.30;0.30;;;;;;;16.13;28.53;102080.28;5106982;28;20510;-60
2023/04/17 08:16:22;;;;;;;0.30;0.30;;;;;;;15.74;29.14;102093.47;5107168;28;20071;-60
2023/04/17 08:18:47;;;;;;;0.30;0.30;;;;;;;15.88;29.47;102100.44;5107156;28;20020;-60
2023/04/17 08:21:13;;;;;;;0.68;0.68;;;;;;;15.91;28.73;102082.94;5106868;28;20031;-60
2023/04/17 08:23:39;;;;;;;0.65;0.65;;;;;;;15.92;29.34;102078.56;5106728;28;20044;-60
2023/04/17 08:26:05;;;;;;;0.95;0.95;;;;;;;16.11;29.17;102082.03;5107032;28;20052;-60
2023/04/17 08:28:30;;;;;;;0.60;0.60;;;;;;;16.30;28.56;102077.56;5106975;28;20033;-59
2023/04/17 08:30:56;;;;;;;0.30;0.30;;;;;;;16.57;28.42;102082.63;5088853;28;20024;-60
2023/04/17 08:33:21;;;;;;;0.20;0.20;;;;;;;16.91;28.06;102078.88;5106561;28;20103;-60
2023/04/17 08:35:47;;;;;;;0.50;0.50;;;;;;;17.03;27.67;102084.03;5105718;28;20046;-60
2023/04/17 08:38:13;;;;;;;0.40;0.40;;;;;;;17.29;26.83;102076.81;5106689;28;20064;-60
2023/04/17 08:40:45;;;;;;;0.30;0.30;;;;;;;17.51;27.20;102069.59;5106707;28;20059;-60
2023/04/17 08:43:16;;;;;;;0.30;0.30;;;;;;;17.75;25.72;102079.84;5106541;28;20077;-60
2023/04/17 08:45:56;;;;;;;0.30;0.30;;;;;;;17.79;25.48;102076.28;5106728;28;20028;-59
2023/04/17 08:48:23;;;;;;;0.47;0.47;;;;;;;17.33;25.32;102074.16;5106736;28;20055;-60
2023/04/17 08:50:50;;;;;;;0.30;0.30;;;;;;;17.36;24.78;102069.75;5087933;28;20024;-59
2023/04/17 08:53:16;;;;;;;0.30;0.30;;;;;;;17.11;23.97;102075.25;5106528;28;20026;-61
2023/04/17 08:55:43;;;;;;;0.30;0.30;;;;;;;16.91;24.83;102073.63;5106466;28;20051;-60
2023/04/17 08:58:09;;;;;;;0.30;0.30;;;;;;;17.29;24.29;102080.34;5106421;28;20024;-61
2023/04/17 09:00:36;;;;;;;0.30;0.30;;;;;;;17.36;23.77;102080.28;5106291;28;20536;-59
2023/04/17 09:03:03;;;;;;;3.05;2.50;;;;;;;17.47;22.40;102073.16;5088103;28;20075;-60
2023/04/17 09:05:35;;;;;;;0.30;0.30;;;;;;;17.48;22.95;102050.41;5106173;28;20024;-58
2023/04/17 09:08:06;;;;;;;0.30;0.30;;;;;;;17.43;22.47;102074.06;5106127;28;20487;-61
2023/04/17 09:10:43;;;;;;;0.50;0.50;;;;;;;17.58;22.98;102063.41;5106121;28;20028;-60
2023/04/17 09:13:13;;;;;;;0.40;0.40;;;;;;;17.90;21.84;102095.44;5106093;28;20056;-59
2023/04/17 09:15:39;;;;;;;0.30;0.30;;;;;;;17.47;21.88;102078.41;5105935;28;20095;-60
2023/04/17 09:18:04;;;;;;;0.55;0.55;;;;;;;17.36;22.49;102069.75;5105971;28;20118;-60
2023/04/17 09:20:30;;;;;;;0.30;0.30;;;;;;;17.37;22.52;102076.75;5105784;28;20020;-59
2023/04/17 09:23:03;;;;;;;0.30;0.30;;;;;;;17.25;22.68;102073.38;5105963;28;20028;-62
2023/04/17 09:25:28;;;;;;;0.30;0.30;;;;;;;17.52;22.59;102086.22;5105996;28;20069;-60
2023/04/17 09:28:07;;;;;;;0.52;0.52;;;;;;;17.60;22.10;102094.91;5105814;28;20020;-60
2023/04/17 09:30:37;;;;;;;0.30;0.30;;;;;;;17.32;22.57;102090.78;5105839;28;20024;-60
2023/04/17 09:33:03;;;;;;;0.30;0.30;;;;;;;17.31;22.26;102103.94;5105417;28;20494;-59
2023/04/17 09:35:30;;;;;;;0.30;0.30;;;;;;;17.20;22.36;102083.91;5087109;28;20028;-59
2023/04/17 09:37:58;;;;;;;0.20;0.20;;;;;;;17.12;22.32;102095.38;5105546;28;20046;-61
2023/04/17 09:40:24;;;;;;;0.30;0.30;;;;;;;17.12;22.71;102100.59;5105578;28;20275;-60
2023/04/17 09:43:00;;;;;;;0.20;0.20;;;;;;;17.14;22.59;102090.97;5105515;28;20016;-60
2023/04/17 09:45:32;;;;;;;0.30;0.30;;;;;;;17.52;22.09;102086.22;5105190;28;20024;-62
2023/04/17 09:47:59;;;;;;;0.30;0.30;;;;;;;17.50;21.96;102077.50;5105434;28;20019;-60
2023/04/17 09:50:26;;;;;;;0.30;0.30;;;;;;;17.86;21.58;102096.34;5105437;28;20084;-60
2023/04/17 09:52:53;;;;;;;0.30;0.30;;;;;;;17.53;21.36;102094.09;5105192;28;20030;-61
2023/04/17 09:55:31;;;;;;;0.30;0.30;;;;;;;17.53;21.71;102103.72;5105029;28;20028;-60
2023/04/17 09:58:01;;;;;;;0.25;0.25;;;;;;;17.50;21.38;102094.13;5086955;28;20092;-60
2023/04/17 10:00:28;;;;;;;0.30;0.30;;;;;;;17.40;21.65;102118.72;5104864;28;20050;-60
2023/04/17 10:02:55;;;;;;;0.30;0.30;;;;;;;17.21;21.45;102109.28;5105030;28;20026;-62
2023/04/17 10:05:23;;;;;;;0.30;0.30;;;;;;;17.39;21.40;102096.88;5086569;28;20084;-61
2023/04/17 10:07:49;;;;;;;0.35;0.35;;;;;;;17.43;21.61;102110.81;5104534;28;20020;-61
2023/04/17 10:10:30;;;;;;;0.60;0.60;;;;;;;17.50;21.85;102102.00;5104789;28;20048;-61
2023/04/17 10:12:59;;;;;;;0.68;0.68;;;;;;;17.40;21.97;102093.34;5104811;28;20087;-60
2023/04/17 10:15:25;;;;;;;0.30;0.30;;;;;;;17.50;22.57;102094.13;5104604;28;20020;-60
2023/04/17 10:17:51;;;;;;;0.30;0.30;;;;;;;18.05;22.04;102106.63;5105003;28;20054;-60
2023/04/17 10:20:17;;;;;;;0.22;0.22;;;;;;;18.38;21.51;102100.97;5104812;28;20027;-60
2023/04/17 10:22:44;;;;;;;0.20;0.20;;;;;;;18.42;21.30;102102.66;5104665;28;20051;-61
2023/04/17 10:25:12;;;;;;;0.40;0.40;;;;;;;18.36;21.29;102101.00;5086333;28;20026;-59
2023/04/17 10:27:38;;;;;;;0.20;0.20;;;;;;;18.28;21.43;102103.72;5104681;28;20032;-60
2023/04/17 10:30:11;;;;;;;1.42;1.33;;;;;;;18.23;20.65;102088.94;5104913;28;20036;-60
2023/04/17 10:32:38;;;;;;;0.20;0.20;;;;;;;18.10;20.75;102104.81;5085936;28;20127;-61
2023/04/17 10:35:15;;;;;;;0.22;0.22;;;;;;;17.63;21.02;102088.72;5104468;28;20031;-60
2023/04/17 10:37:47;;;;;;;0.30;0.30;;;;;;;17.74;21.61;102100.00;5104423;28;20040;-60
2023/04/17 10:40:23;;;;;;;0.30;0.30;;;;;;;17.89;21.39;102100.69;5104296;28;20023;-61
2023/04/17 10:43:13;;;;;;;0.30;0.30;;;;;;;17.80;21.30;102091.16;5104421;28;20051;-60
2023/04/17 10:45:58;;;;;;;0.30;0.30;;;;;;;17.64;21.33;102091.34;5104201;28;20028;-61
2023/04/17 10:48:33;;;;;;;0.20;0.20;;;;;;;17.51;21.74;102087.13;5104526;28;20032;-59
2023/04/17 10:51:00;;;;;;;0.30;0.30;;;;;;;17.70;21.60;102088.63;5104250;28;20024;-60
2023/04/17 10:53:43;;;;;;;0.85;0.85;;;;;;;17.92;21.42;102088.38;5104261;28;20028;-60
2023/04/17 10:56:10;;;;;;;0.20;0.20;;;;;;;18.12;20.93;102110.06;5104118;28;20035;-60
2023/04/17 10:58:37;;;;;;;0.30;0.30;;;;;;;18.03;19.73;102084.75;5103901;28;20074;-59
2023/04/17 11:01:08;;;;;;;0.50;0.50;;;;;;;17.84;20.34;102074.50;5104174;28;20024;-59
2023/04/17 11:03:36;;;;;;;0.30;0.30;;;;;;;17.59;20.61;102085.25;5104233;28;20031;-60
2023/04/17 11:06:02;;;;;;;0.22;0.22;;;;;;;17.54;20.22;102074.81;5103911;28;20091;-60
2023/04/17 11:08:27;;;;;;;0.30;0.30;;;;;;;17.71;20.27;102085.16;5104094;28;20023;-61
2023/04/17 11:10:55;;;;;;;2.28;2.08;;;;;;;17.97;20.70;102088.34;5104203;28;20401;-60
2023/04/17 11:13:21;;;;;;;0.30;0.30;;;;;;;18.52;20.59;102087.63;5104242;28;20027;-60
2023/04/17 11:15:46;;;;;;;0.30;0.30;;;;;;;18.85;20.92;102071.34;5104016;28;20047;-60
2023/04/17 11:18:13;;;;;;;0.43;0.43;;;;;;;19.28;19.74;102073.22;5104250;28;20024;-59
2023/04/17 11:20:40;;;;;;;0.20;0.20;;;;;;;19.31;19.46;102069.69;5104023;28;20074;-60
2023/04/17 11:23:06;;;;;;;1.58;1.48;;;;;;;19.55;18.54;102084.13;5103973;28;20027;-60
2023/04/17 11:25:32;;;;;;;0.55;0.55;;;;;;;19.34;18.15;102071.38;5103773;28;20035;-61